createdAt,value
2023-03-18T00:00:13.521Z,54
2023-03-18T00:01:23.350Z,53
2023-03-18T00:02:33.062Z,53
2023-03-18T00:03:42.439Z,53
2023-03-18T00:04:50.169Z,53
2023-03-18T00:05:59.956Z,53
2023-03-18T00:07:12.826Z,53
2023-03-18T00:08:32.233Z,54
2023-03-18T00:09:39.142Z,54
2023-03-18T00:10:49.074Z,54
2023-03-18T00:11:56.386Z,54
2023-03-18T00:13:03.896Z,54
2023-03-18T00:14:11.156Z,54
2023-03-18T00:15:18.218Z,54
2023-03-18T00:16:28.206Z,54
2023-03-18T00:17:36.002Z,54
2023-03-18T00:18:45.271Z,54
2023-03-18T00:19:54.973Z,54
2023-03-18T00:21:04.926Z,55
2023-03-18T00:22:12.641Z,55
2023-03-18T00:23:20.666Z,55
2023-03-18T00:24:28.077Z,55
2023-03-18T00:25:35.708Z,55
2023-03-18T00:26:46.390Z,55
2023-03-18T00:27:53.393Z,55
2023-03-18T00:29:03.209Z,55
2023-03-18T00:30:13.272Z,55
2023-03-18T00:31:26.405Z,55
2023-03-18T00:32:36.488Z,55
2023-03-18T00:33:44.280Z,55
2023-03-18T00:34:52.622Z,55
2023-03-18T00:36:08.480Z,55
2023-03-18T00:37:38.538Z,55
2023-03-18T00:38:45.501Z,56
2023-03-18T00:39:52.593Z,56
2023-03-18T00:41:02.641Z,56
2023-03-18T00:42:14.912Z,56
2023-03-18T00:43:21.906Z,56
2023-03-18T00:44:29.067Z,56
2023-03-18T00:45:36.909Z,56
2023-03-18T00:46:44.980Z,55
2023-03-18T00:47:52.255Z,55
2023-03-18T00:49:02.205Z,55
2023-03-18T00:50:09.276Z,55
2023-03-18T00:51:18.907Z,55
2023-03-18T00:52:26.358Z,55
2023-03-18T00:53:33.421Z,55
2023-03-18T00:54:40.415Z,55
2023-03-18T00:55:50.150Z,55
2023-03-18T00:56:57.208Z,55
2023-03-18T00:58:07.125Z,55
2023-03-18T00:59:20.658Z,55
2023-03-18T01:00:28.442Z,55
2023-03-18T01:01:38.341Z,55
2023-03-18T01:02:45.421Z,55
2023-03-18T01:03:55.092Z,55
2023-03-18T01:05:02.110Z,55
2023-03-18T01:06:11.865Z,55
2023-03-18T01:07:24.862Z,55
2023-03-18T01:08:32.464Z,55
2023-03-18T01:09:42.234Z,56
2023-03-18T01:10:49.212Z,56
2023-03-18T01:11:56.528Z,56
2023-03-18T01:13:04.486Z,56
2023-03-18T01:14:12.398Z,56
2023-03-18T01:15:19.376Z,56
2023-03-18T01:16:26.616Z,56
2023-03-18T01:17:36.444Z,56
2023-03-18T01:18:46.109Z,56
2023-03-18T01:19:53.252Z,56
2023-03-18T01:21:00.539Z,56
2023-03-18T01:22:11.001Z,56
2023-03-18T01:23:18.073Z,56
2023-03-18T01:24:26.251Z,56
2023-03-18T01:25:33.175Z,56
2023-03-18T01:26:41.567Z,56
2023-03-18T01:27:51.252Z,56
2023-03-18T01:29:01.912Z,56
2023-03-18T01:30:10.519Z,56
2023-03-18T01:31:17.980Z,56
2023-03-18T01:32:24.936Z,56
2023-03-18T01:33:32.824Z,56
2023-03-18T01:34:40.569Z,56
2023-03-18T01:35:47.760Z,56
2023-03-18T01:37:00.457Z,56
2023-03-18T01:38:07.553Z,57
2023-03-18T01:39:15.325Z,57
2023-03-18T01:40:22.346Z,57
2023-03-18T01:41:32.372Z,57
2023-03-18T01:42:40.603Z,57
2023-03-18T01:43:47.904Z,57
2023-03-18T01:44:56.008Z,57
2023-03-18T01:46:13.417Z,57
2023-03-18T01:47:31.230Z,57
2023-03-18T01:48:38.483Z,57
2023-03-18T01:49:48.209Z,57
2023-03-18T01:50:55.347Z,57
2023-03-18T01:52:05.692Z,57
2023-03-18T01:53:17.785Z,57
2023-03-18T01:54:25.817Z,57
2023-03-18T01:55:33.111Z,58
2023-03-18T01:56:40.766Z,58
2023-03-18T01:57:47.827Z,58
2023-03-18T01:58:57.864Z,58
2023-03-18T02:00:05.596Z,58
2023-03-18T02:01:13.932Z,58
2023-03-18T02:02:24.109Z,58
2023-03-18T02:03:31.073Z,58
2023-03-18T02:04:40.415Z,58
2023-03-18T02:05:47.854Z,58
2023-03-18T02:06:54.801Z,58
2023-03-18T02:08:01.819Z,58
2023-03-18T02:09:08.885Z,58
2023-03-18T02:10:18.695Z,58
2023-03-18T02:11:28.610Z,58
2023-03-18T02:12:36.053Z,58
2023-03-18T02:13:44.044Z,58
2023-03-18T02:14:51.876Z,58
2023-03-18T02:16:01.583Z,58
2023-03-18T02:17:11.202Z,58
2023-03-18T02:18:20.880Z,58
2023-03-18T02:19:32.346Z,58
2023-03-18T02:20:46.079Z,58
2023-03-18T02:22:01.226Z,59
2023-03-18T02:23:21.384Z,59
2023-03-18T02:24:37.231Z,59
2023-03-18T02:25:54.687Z,59
2023-03-18T02:27:07.519Z,59
2023-03-18T02:28:17.400Z,59
2023-03-18T02:29:27.076Z,59
2023-03-18T02:30:41.922Z,59
2023-03-18T02:31:54.111Z,59
2023-03-18T02:33:01.260Z,59
2023-03-18T02:34:08.798Z,59
2023-03-18T02:35:16.140Z,59
2023-03-18T02:36:27.560Z,59
2023-03-18T02:37:34.552Z,59
2023-03-18T02:38:41.725Z,60
2023-03-18T02:39:49.215Z,61
2023-03-18T02:40:56.454Z,61
2023-03-18T02:42:06.629Z,61
2023-03-18T02:43:17.127Z,61
2023-03-18T02:44:32.194Z,62
2023-03-18T02:45:39.253Z,62
2023-03-18T02:46:49.478Z,62
2023-03-18T02:48:02.572Z,62
2023-03-18T02:49:10.466Z,63
2023-03-18T02:50:17.425Z,63
2023-03-18T02:51:25.212Z,63
2023-03-18T02:52:33.024Z,63
2023-03-18T02:53:42.613Z,63
2023-03-18T02:54:49.589Z,63
2023-03-18T02:55:56.581Z,64
2023-03-18T02:57:04.325Z,64
2023-03-18T02:58:11.322Z,64
2023-03-18T02:59:18.837Z,64
2023-03-18T03:00:25.901Z,64
2023-03-18T03:01:35.748Z,64
2023-03-18T03:02:46.690Z,64
2023-03-18T03:03:56.250Z,64
2023-03-18T03:05:04.164Z,64
2023-03-18T03:06:11.501Z,64
2023-03-18T03:07:18.587Z,64
2023-03-18T03:08:26.367Z,64
2023-03-18T03:09:34.063Z,64
2023-03-18T03:10:41.486Z,64
2023-03-18T03:11:51.034Z,64
2023-03-18T03:13:00.779Z,64
2023-03-18T03:14:10.536Z,64
2023-03-18T03:15:20.122Z,64
2023-03-18T03:16:27.161Z,64
2023-03-18T03:17:34.929Z,64
2023-03-18T03:18:42.586Z,64
2023-03-18T03:19:50.148Z,65
2023-03-18T03:20:59.930Z,65
2023-03-18T03:22:07.756Z,65
2023-03-18T03:23:17.559Z,65
2023-03-18T03:24:26.778Z,65
2023-03-18T03:25:35.238Z,65
2023-03-18T03:26:46.870Z,65
2023-03-18T03:27:56.867Z,65
2023-03-18T03:29:04.562Z,65
2023-03-18T03:30:12.805Z,65
2023-03-18T03:31:19.988Z,65
2023-03-18T03:32:29.557Z,65
2023-03-18T03:33:37.239Z,65
2023-03-18T03:34:44.491Z,65
2023-03-18T03:35:54.431Z,64
2023-03-18T03:37:03.873Z,65
2023-03-18T03:38:11.643Z,65
2023-03-18T03:39:18.795Z,65
2023-03-18T03:40:25.851Z,65
2023-03-18T03:41:34.534Z,66
2023-03-18T03:42:41.573Z,66
2023-03-18T03:43:49.013Z,66
2023-03-18T03:44:56.232Z,66
2023-03-18T03:46:03.467Z,66
2023-03-18T03:47:10.643Z,66
2023-03-18T03:48:20.586Z,66
2023-03-18T03:49:30.902Z,66
2023-03-18T03:50:39.516Z,66
2023-03-18T03:51:46.500Z,66
2023-03-18T03:52:53.923Z,66
2023-03-18T03:54:00.987Z,66
2023-03-18T03:55:08.674Z,66
2023-03-18T03:56:15.825Z,66
2023-03-18T03:57:24.778Z,66
2023-03-18T03:58:31.870Z,66
2023-03-18T03:59:39.560Z,66
2023-03-18T04:00:49.531Z,66
2023-03-18T04:01:56.555Z,66
2023-03-18T04:03:05.032Z,66
2023-03-18T04:04:12.790Z,67
2023-03-18T04:05:20.538Z,67
2023-03-18T04:06:30.565Z,67
2023-03-18T04:07:38.132Z,67
2023-03-18T04:08:49.319Z,67
2023-03-18T04:09:57.165Z,67
2023-03-18T04:11:05.210Z,67
2023-03-18T04:12:13.029Z,67
2023-03-18T04:13:42.882Z,67
2023-03-18T04:15:04.489Z,67
2023-03-18T04:16:12.841Z,66
2023-03-18T04:17:32.862Z,67
2023-03-18T04:18:40.642Z,67
2023-03-18T04:19:53.725Z,67
2023-03-18T04:21:02.002Z,67
2023-03-18T04:22:09.099Z,67
2023-03-18T04:23:17.020Z,67
2023-03-18T04:24:24.351Z,66
2023-03-18T04:25:34.349Z,66
2023-03-18T04:26:41.480Z,66
2023-03-18T04:27:51.607Z,66
2023-03-18T04:28:59.469Z,66
2023-03-18T04:30:08.036Z,66
2023-03-18T04:31:15.439Z,66
2023-03-18T04:32:22.345Z,66
2023-03-18T04:33:29.696Z,66
2023-03-18T04:34:38.329Z,66
2023-03-18T04:35:47.391Z,66
2023-03-18T04:36:54.376Z,66
2023-03-18T04:38:04.226Z,66
2023-03-18T04:39:11.320Z,66
2023-03-18T04:40:18.456Z,65
2023-03-18T04:41:26.399Z,66
2023-03-18T04:42:33.404Z,66
2023-03-18T04:43:41.227Z,65
2023-03-18T04:44:48.284Z,66
2023-03-18T04:45:55.402Z,66
2023-03-18T04:47:02.467Z,66
2023-03-18T04:48:09.481Z,66
2023-03-18T04:49:16.431Z,66
2023-03-18T04:50:23.758Z,66
2023-03-18T04:51:30.759Z,66
2023-03-18T04:52:40.829Z,66
2023-03-18T04:53:47.922Z,66
2023-03-18T04:54:55.040Z,66
2023-03-18T04:56:02.930Z,66
2023-03-18T04:57:12.871Z,66
2023-03-18T04:58:19.903Z,65
2023-03-18T04:59:27.715Z,65
2023-03-18T05:00:44.785Z,65
2023-03-18T05:01:51.978Z,65
2023-03-18T05:02:58.947Z,66
2023-03-18T05:04:06.143Z,66
2023-03-18T05:05:15.939Z,66
2023-03-18T05:06:22.823Z,66
2023-03-18T05:07:30.881Z,66
2023-03-18T05:08:38.969Z,66
2023-03-18T05:09:46.066Z,66
2023-03-18T05:10:53.453Z,66
2023-03-18T05:12:00.474Z,66
2023-03-18T05:13:07.436Z,66
2023-03-18T05:14:16.242Z,67
2023-03-18T05:15:24.286Z,67
2023-03-18T05:16:33.317Z,67
2023-03-18T05:17:40.238Z,67
2023-03-18T05:18:47.187Z,67
2023-03-18T05:19:55.998Z,67
2023-03-18T05:21:03.159Z,67
2023-03-18T05:22:10.815Z,67
2023-03-18T05:23:17.906Z,67
2023-03-18T05:24:25.933Z,68
2023-03-18T05:25:35.528Z,68
2023-03-18T05:26:42.742Z,68
2023-03-18T05:27:49.915Z,68
2023-03-18T05:28:56.910Z,68
2023-03-18T05:30:04.762Z,68
2023-03-18T05:31:12.789Z,68
2023-03-18T05:32:22.739Z,68
2023-03-18T05:33:29.737Z,68
2023-03-18T05:34:37.990Z,68
2023-03-18T05:35:45.952Z,68
2023-03-18T05:36:52.915Z,68
2023-03-18T05:37:59.844Z,68
2023-03-18T05:39:06.829Z,68
2023-03-18T05:40:17.404Z,68
2023-03-18T05:41:25.309Z,68
2023-03-18T05:42:43.249Z,68
2023-03-18T05:43:42.388Z,69
2023-03-18T05:44:52.307Z,69
2023-03-18T05:45:59.409Z,69
2023-03-18T05:47:06.568Z,69
2023-03-18T05:48:13.826Z,69
2023-03-18T05:49:23.474Z,69
2023-03-18T05:50:30.462Z,69
2023-03-18T05:51:40.594Z,69
2023-03-18T05:52:47.610Z,69
2023-03-18T05:53:54.571Z,69
2023-03-18T05:55:01.799Z,69
2023-03-18T05:56:09.017Z,69
2023-03-18T05:57:16.025Z,69
2023-03-18T05:58:23.308Z,69
2023-03-18T05:59:30.953Z,69
2023-03-18T06:00:37.945Z,69
2023-03-18T06:01:45.213Z,68
2023-03-18T06:02:52.233Z,68
2023-03-18T06:03:59.155Z,68
2023-03-18T06:05:06.146Z,68
2023-03-18T06:06:13.134Z,68
2023-03-18T06:07:20.144Z,68
2023-03-18T06:08:27.361Z,67
2023-03-18T06:09:38.033Z,67
2023-03-18T06:10:45.174Z,67
2023-03-18T06:11:52.162Z,66
2023-03-18T06:12:59.320Z,66
2023-03-18T06:14:06.507Z,66
2023-03-18T06:15:13.680Z,66
2023-03-18T06:16:22.529Z,66
2023-03-18T06:17:31.302Z,65
2023-03-18T06:18:38.476Z,65
2023-03-18T06:19:45.689Z,65
2023-03-18T06:20:52.663Z,65
2023-03-18T06:22:00.764Z,65
2023-03-18T06:23:07.815Z,65
2023-03-18T06:24:14.899Z,65
2023-03-18T06:25:24.604Z,64
2023-03-18T06:26:31.752Z,64
2023-03-18T06:27:39.179Z,64
2023-03-18T06:28:46.288Z,64
2023-03-18T06:29:53.305Z,64
2023-03-18T06:31:01.336Z,64
2023-03-18T06:32:09.847Z,64
2023-03-18T06:33:16.961Z,63
2023-03-18T06:34:24.135Z,63
2023-03-18T06:35:31.480Z,63
2023-03-18T06:36:38.144Z,63
2023-03-18T06:37:48.917Z,63
2023-03-18T06:38:56.434Z,62
2023-03-18T06:40:03.552Z,62
2023-03-18T06:41:13.827Z,61
2023-03-18T06:42:20.944Z,60
2023-03-18T06:43:28.056Z,60
2023-03-18T06:44:35.093Z,59
2023-03-18T06:45:42.175Z,59
2023-03-18T06:46:49.289Z,58
2023-03-18T06:48:00.461Z,58
2023-03-18T06:49:07.594Z,57
2023-03-18T06:50:14.675Z,57
2023-03-18T06:51:21.765Z,56
2023-03-18T06:52:28.905Z,56
2023-03-18T06:53:35.972Z,55
2023-03-18T06:54:42.991Z,55
2023-03-18T06:55:53.116Z,54
2023-03-18T06:57:03.116Z,54
2023-03-18T06:58:13.060Z,54
2023-03-18T06:59:21.104Z,54
2023-03-18T07:00:28.239Z,53
2023-03-18T07:01:37.079Z,53
2023-03-18T07:02:44.016Z,52
2023-03-18T07:03:51.346Z,52
2023-03-18T07:05:01.354Z,51
2023-03-18T07:06:08.395Z,51
2023-03-18T07:07:18.308Z,51
2023-03-18T07:08:25.686Z,51
2023-03-18T07:09:32.691Z,51
2023-03-18T07:10:39.715Z,50
2023-03-18T07:11:49.375Z,50
2023-03-18T07:12:56.331Z,50
2023-03-18T07:14:06.013Z,49
2023-03-18T07:15:13.058Z,49
2023-03-18T07:16:20.116Z,49
2023-03-18T07:17:29.592Z,48
2023-03-18T07:18:37.959Z,48
2023-03-18T07:19:45.042Z,48
2023-03-18T07:20:52.267Z,48
2023-03-18T07:22:02.256Z,48
2023-03-18T07:23:09.361Z,48
2023-03-18T07:24:19.070Z,48
2023-03-18T07:25:26.945Z,47
2023-03-18T07:26:34.070Z,47
2023-03-18T07:27:41.094Z,46
2023-03-18T07:28:48.080Z,46
2023-03-18T07:29:55.080Z,46
2023-03-18T07:31:02.166Z,46
2023-03-18T07:32:09.339Z,46
2023-03-18T07:33:16.492Z,46
2023-03-18T07:34:25.181Z,46
2023-03-18T07:35:32.560Z,46
2023-03-18T07:36:45.625Z,45
2023-03-18T07:37:53.051Z,45
2023-03-18T07:39:00.335Z,45
2023-03-18T07:40:14.045Z,45
2023-03-18T07:41:21.906Z,45
2023-03-18T07:42:28.899Z,45
2023-03-18T07:43:35.869Z,45
2023-03-18T07:44:46.372Z,45
2023-03-18T07:45:53.339Z,44
2023-03-18T07:47:02.812Z,44
2023-03-18T07:48:10.583Z,44
2023-03-18T07:49:20.233Z,44
2023-03-18T07:50:27.246Z,44
2023-03-18T07:51:34.321Z,43
2023-03-18T07:52:41.425Z,43
2023-03-18T07:53:49.180Z,43
2023-03-18T07:54:56.576Z,43
2023-03-18T07:56:03.518Z,43
2023-03-18T07:57:10.832Z,43
2023-03-18T07:58:20.661Z,43
2023-03-18T07:59:27.676Z,42
2023-03-18T08:00:38.276Z,42
2023-03-18T08:01:46.119Z,42
2023-03-18T08:02:55.923Z,42
2023-03-18T08:04:03.779Z,42
2023-03-18T08:05:13.691Z,42
2023-03-18T08:06:21.412Z,42
2023-03-18T08:07:28.499Z,41
2023-03-18T08:08:38.245Z,42
2023-03-18T08:09:46.234Z,41
2023-03-18T08:10:54.140Z,41
2023-03-18T08:12:01.256Z,41
2023-03-18T08:13:08.244Z,41
2023-03-18T08:14:17.810Z,41
2023-03-18T08:15:27.704Z,41
2023-03-18T08:16:35.035Z,41
2023-03-18T08:17:44.717Z,41
2023-03-18T08:18:51.878Z,41
2023-03-18T08:19:59.362Z,41
2023-03-18T08:21:06.543Z,41
2023-03-18T08:22:13.650Z,41
2023-03-18T08:23:29.905Z,40
2023-03-18T08:24:38.893Z,40
2023-03-18T08:25:50.408Z,40
2023-03-18T08:26:57.468Z,40
2023-03-18T08:28:04.949Z,40
2023-03-18T08:29:12.262Z,40
2023-03-18T08:30:19.975Z,39
2023-03-18T08:31:27.107Z,39
2023-03-18T08:32:34.228Z,39
2023-03-18T08:33:41.064Z,38
2023-03-18T08:34:56.804Z,38
2023-03-18T08:36:05.614Z,39
2023-03-18T08:37:12.577Z,39
2023-03-18T08:38:22.688Z,38
2023-03-18T08:39:31.940Z,38
2023-03-18T08:40:38.816Z,38
2023-03-18T08:41:45.924Z,38
2023-03-18T08:42:53.393Z,38
2023-03-18T08:44:00.120Z,38
2023-03-18T08:45:06.903Z,39
2023-03-18T08:46:14.134Z,39
2023-03-18T08:47:20.970Z,39
2023-03-18T08:48:34.294Z,39
2023-03-18T08:49:43.440Z,39
2023-03-18T08:50:51.147Z,39
2023-03-18T08:51:58.919Z,39
2023-03-18T08:53:05.882Z,39
2023-03-18T08:54:12.795Z,39
2023-03-18T08:55:19.704Z,39
2023-03-18T08:56:26.591Z,39
2023-03-18T08:57:33.448Z,39
2023-03-18T08:58:40.377Z,38
2023-03-18T08:59:49.952Z,38
2023-03-18T09:00:56.915Z,38
2023-03-18T09:02:03.780Z,38
2023-03-18T09:03:10.755Z,38
2023-03-18T09:04:17.507Z,38
2023-03-18T09:05:24.364Z,38
2023-03-18T09:06:31.155Z,38
2023-03-18T09:07:37.965Z,38
2023-03-18T09:08:44.917Z,39
2023-03-18T09:09:55.369Z,38
2023-03-18T09:11:02.208Z,39
2023-03-18T09:12:09.072Z,39
2023-03-18T09:13:15.947Z,39
2023-03-18T09:14:23.013Z,38
2023-03-18T09:15:30.283Z,38
2023-03-18T09:16:37.792Z,38
2023-03-18T09:17:56.912Z,38
2023-03-18T09:18:51.470Z,38
2023-03-18T09:19:59.060Z,38
2023-03-18T09:21:06.021Z,37
2023-03-18T09:22:12.969Z,37
2023-03-18T09:23:19.927Z,37
2023-03-18T09:24:26.998Z,37
2023-03-18T09:25:34.286Z,37
2023-03-18T09:26:40.764Z,36
2023-03-18T09:27:47.642Z,36
2023-03-18T09:28:54.482Z,36
2023-03-18T09:30:01.379Z,36
2023-03-18T09:31:08.466Z,35
2023-03-18T09:32:15.280Z,35
2023-03-18T09:33:22.166Z,35
2023-03-18T09:34:28.956Z,36
2023-03-18T09:35:36.280Z,36
2023-03-18T09:36:42.764Z,36
2023-03-18T09:37:50.484Z,35
2023-03-18T09:38:57.434Z,35
2023-03-18T09:40:04.368Z,35
2023-03-18T09:41:11.552Z,35
2023-03-18T09:42:23.637Z,35
2023-03-18T09:43:40.612Z,35
2023-03-18T09:45:00.694Z,36
2023-03-18T09:46:08.024Z,35
2023-03-18T09:47:22.532Z,34
2023-03-18T09:48:37.437Z,34
2023-03-18T09:49:52.227Z,33
2023-03-18T09:51:09.179Z,33
2023-03-18T09:52:21.214Z,33
2023-03-18T09:53:33.199Z,33
2023-03-18T09:54:45.088Z,33
2023-03-18T09:55:57.844Z,31
2023-03-18T09:57:04.778Z,31
2023-03-18T09:58:16.767Z,31
2023-03-18T09:59:31.275Z,32
2023-03-18T10:00:44.348Z,31
2023-03-18T10:01:51.344Z,32
2023-03-18T10:02:58.122Z,32
2023-03-18T10:04:08.774Z,32
2023-03-18T10:05:19.089Z,32
2023-03-18T10:06:31.049Z,32
2023-03-18T10:07:37.940Z,32
2023-03-18T10:08:44.807Z,32
2023-03-18T10:09:57.591Z,32
2023-03-18T10:11:04.563Z,33
2023-03-18T10:12:11.393Z,31
2023-03-18T10:13:23.343Z,31
2023-03-18T10:14:34.766Z,31
2023-03-18T10:15:47.525Z,31
2023-03-18T10:16:54.341Z,31
2023-03-18T10:18:11.242Z,31
2023-03-18T10:19:28.291Z,31
2023-03-18T10:20:35.084Z,30
2023-03-18T10:21:49.598Z,30
2023-03-18T10:22:59.072Z,31
2023-03-18T10:24:10.974Z,31
2023-03-18T10:25:28.095Z,30
2023-03-18T10:26:37.423Z,30
2023-03-18T10:27:45.044Z,30
2023-03-18T10:29:01.988Z,30
2023-03-18T10:30:13.877Z,29
2023-03-18T10:31:30.892Z,29
2023-03-18T10:32:49.761Z,29
2023-03-18T10:33:56.333Z,29
2023-03-18T10:35:08.246Z,30
2023-03-18T10:36:25.214Z,29
2023-03-18T10:37:34.185Z,29
2023-03-18T10:38:51.151Z,28
2023-03-18T10:39:58.014Z,29
2023-03-18T10:41:04.886Z,29
2023-03-18T10:42:19.908Z,30
2023-03-18T10:43:26.767Z,30
2023-03-18T10:44:33.630Z,30
2023-03-18T10:45:40.484Z,30
2023-03-18T10:46:48.446Z,30
2023-03-18T10:48:00.454Z,30
2023-03-18T10:49:09.832Z,29
2023-03-18T10:50:21.744Z,30
2023-03-18T10:51:33.632Z,30
2023-03-18T10:52:48.128Z,29
2023-03-18T10:54:00.051Z,29
2023-03-18T10:55:12.126Z,30
2023-03-18T10:56:19.003Z,30
2023-03-18T10:57:25.820Z,29
2023-03-18T10:58:32.659Z,29
2023-03-18T10:59:39.575Z,29
2023-03-18T11:00:46.483Z,29
2023-03-18T11:01:53.381Z,29
2023-03-18T11:03:03.037Z,28
2023-03-18T11:04:09.841Z,29
2023-03-18T11:05:16.614Z,28
2023-03-18T11:06:26.355Z,28
2023-03-18T11:07:44.117Z,29
2023-03-18T11:09:01.056Z,29
2023-03-18T11:10:10.778Z,29
2023-03-18T11:11:18.662Z,29
2023-03-18T11:12:30.654Z,29
2023-03-18T11:13:37.468Z,28
2023-03-18T11:14:52.485Z,29
2023-03-18T11:15:59.580Z,28
2023-03-18T11:17:06.424Z,29
2023-03-18T11:18:23.609Z,28
2023-03-18T11:19:30.488Z,29
2023-03-18T11:20:42.843Z,28
2023-03-18T11:21:49.820Z,28
2023-03-18T11:23:06.776Z,27
2023-03-18T11:24:19.548Z,28
2023-03-18T11:25:29.105Z,27
2023-03-18T11:26:35.913Z,27
2023-03-18T11:27:47.879Z,27
2023-03-18T11:28:59.871Z,27
2023-03-18T11:30:13.189Z,27
2023-03-18T11:31:18.586Z,27
2023-03-18T11:32:25.564Z,27
2023-03-18T11:33:36.814Z,27
2023-03-18T11:34:43.714Z,27
2023-03-18T11:35:50.572Z,27
2023-03-18T11:37:02.510Z,27
2023-03-18T11:38:09.748Z,26
2023-03-18T11:39:24.414Z,27
2023-03-18T11:40:31.537Z,27
2023-03-18T11:41:38.173Z,27
2023-03-18T11:42:45.001Z,27
2023-03-18T11:43:51.944Z,27
2023-03-18T11:44:58.770Z,27
2023-03-18T11:46:05.591Z,27
2023-03-18T11:47:12.445Z,27
2023-03-18T11:48:24.348Z,27
2023-03-18T11:49:36.215Z,27
2023-03-18T11:50:43.062Z,27
2023-03-18T11:51:58.042Z,27
2023-03-18T11:53:10.065Z,27
2023-03-18T11:54:16.947Z,27
2023-03-18T11:55:34.290Z,26
2023-03-18T11:56:45.876Z,27
2023-03-18T11:58:00.672Z,27
2023-03-18T11:59:17.638Z,27
2023-03-18T12:00:34.670Z,27
2023-03-18T12:01:51.608Z,27
2023-03-18T12:03:00.965Z,27
2023-03-18T12:04:18.154Z,27
2023-03-18T12:05:34.361Z,27
2023-03-18T12:06:48.675Z,26
2023-03-18T12:08:00.611Z,26
2023-03-18T12:09:10.076Z,27
2023-03-18T12:10:24.600Z,26
2023-03-18T12:11:37.242Z,26
2023-03-18T12:12:49.207Z,26
2023-03-18T12:14:06.258Z,26
2023-03-18T12:15:15.970Z,26
2023-03-18T12:16:32.947Z,25
2023-03-18T12:17:49.934Z,26
2023-03-18T12:19:01.738Z,26
2023-03-18T12:20:11.226Z,26
2023-03-18T12:21:26.149Z,25
2023-03-18T12:22:36.081Z,25
2023-03-18T12:23:50.177Z,25
2023-03-18T12:24:55.834Z,25
2023-03-18T12:26:07.712Z,25
2023-03-18T12:27:17.387Z,24
2023-03-18T12:28:32.094Z,23
2023-03-18T12:29:47.108Z,23
2023-03-18T12:30:56.527Z,23
2023-03-18T12:32:06.553Z,24
2023-03-18T12:33:23.440Z,23
2023-03-18T12:34:40.351Z,24
2023-03-18T12:35:52.344Z,24
2023-03-18T12:37:07.120Z,23
2023-03-18T12:38:16.735Z,23
2023-03-18T12:39:37.786Z,24
2023-03-18T12:40:54.060Z,24
2023-03-18T12:42:06.012Z,23
2023-03-18T12:43:20.679Z,23
2023-03-18T12:44:27.449Z,23
2023-03-18T12:45:34.782Z,23
2023-03-18T12:46:41.277Z,23
2023-03-18T12:47:51.285Z,23
2023-03-18T12:48:58.268Z,23
2023-03-18T12:50:07.797Z,24
2023-03-18T12:51:22.476Z,24
2023-03-18T12:52:29.376Z,24
2023-03-18T12:53:41.309Z,24
2023-03-18T12:54:54.112Z,23
2023-03-18T12:56:00.981Z,23
2023-03-18T12:57:08.014Z,24
2023-03-18T12:58:14.929Z,24
2023-03-18T12:59:24.585Z,24
2023-03-18T13:00:34.383Z,24
2023-03-18T13:01:48.903Z,24
2023-03-18T13:03:00.796Z,24
2023-03-18T13:04:12.696Z,24
2023-03-18T13:05:19.609Z,24
2023-03-18T13:06:27.226Z,25
2023-03-18T13:07:36.018Z,24
2023-03-18T13:08:47.990Z,23
2023-03-18T13:10:00.705Z,23
2023-03-18T13:11:17.800Z,24
2023-03-18T13:12:32.325Z,24
2023-03-18T13:13:41.858Z,24
2023-03-18T13:14:48.590Z,24
2023-03-18T13:15:58.627Z,24
2023-03-18T13:17:05.621Z,25
2023-03-18T13:18:18.092Z,25
2023-03-18T13:19:29.978Z,25
2023-03-18T13:20:36.818Z,24
2023-03-18T13:21:43.750Z,24
2023-03-18T13:22:53.513Z,24
2023-03-18T13:24:03.175Z,24
2023-03-18T13:25:20.099Z,24
2023-03-18T13:26:32.015Z,24
2023-03-18T13:27:48.957Z,24
2023-03-18T13:29:00.905Z,24
2023-03-18T13:30:12.789Z,24
2023-03-18T13:31:27.769Z,24
2023-03-18T13:32:44.701Z,24
2023-03-18T13:33:54.199Z,25
2023-03-18T13:35:09.304Z,24
2023-03-18T13:36:26.145Z,24
2023-03-18T13:37:38.033Z,24
2023-03-18T13:38:52.734Z,24
2023-03-18T13:40:09.681Z,24
2023-03-18T13:41:24.367Z,24
2023-03-18T13:42:38.980Z,24
2023-03-18T13:43:45.768Z,24
2023-03-18T13:44:52.679Z,24
2023-03-18T13:46:07.308Z,24
2023-03-18T13:47:19.078Z,24
2023-03-18T13:48:25.856Z,24
2023-03-18T13:49:32.666Z,25
2023-03-18T13:50:39.594Z,24
2023-03-18T13:51:46.452Z,25
2023-03-18T13:52:53.295Z,25
2023-03-18T13:54:00.042Z,25
2023-03-18T13:55:06.990Z,25
2023-03-18T13:56:19.508Z,25
2023-03-18T13:57:36.536Z,24
2023-03-18T13:58:45.948Z,24
2023-03-18T13:59:52.846Z,24
2023-03-18T14:01:09.833Z,25
2023-03-18T14:02:24.387Z,25
2023-03-18T14:03:39.192Z,25
2023-03-18T14:04:46.008Z,25
2023-03-18T14:05:52.833Z,26
2023-03-18T14:07:07.745Z,25
2023-03-18T14:08:14.550Z,26
2023-03-18T14:09:31.475Z,26
2023-03-18T14:10:38.433Z,26
2023-03-18T14:11:45.500Z,26
2023-03-18T14:12:52.157Z,25
2023-03-18T14:13:59.049Z,26
2023-03-18T14:15:08.525Z,26
2023-03-18T14:16:17.968Z,26
2023-03-18T14:17:24.754Z,26
2023-03-18T14:18:36.624Z,26
2023-03-18T14:19:43.459Z,26
2023-03-18T14:20:50.375Z,26
2023-03-18T14:21:57.201Z,26
2023-03-18T14:23:09.136Z,26
2023-03-18T14:24:26.012Z,26
2023-03-18T14:25:33.013Z,26
2023-03-18T14:26:45.390Z,26
2023-03-18T14:28:02.288Z,27
2023-03-18T14:29:12.070Z,26
2023-03-18T14:30:19.030Z,27
2023-03-18T14:31:30.970Z,27
2023-03-18T14:32:42.842Z,27
2023-03-18T14:33:49.662Z,26
2023-03-18T14:35:04.522Z,26
2023-03-18T14:36:16.468Z,26
2023-03-18T14:37:23.219Z,26
2023-03-18T14:38:32.610Z,26
2023-03-18T14:39:47.296Z,26
2023-03-18T14:40:54.086Z,27
2023-03-18T14:42:00.867Z,27
2023-03-18T14:43:07.782Z,26
2023-03-18T14:44:14.737Z,26
2023-03-18T14:45:27.407Z,25
2023-03-18T14:46:34.372Z,26
2023-03-18T14:47:41.071Z,26
2023-03-18T14:48:52.996Z,26
2023-03-18T14:49:59.836Z,26
2023-03-18T14:51:06.683Z,27
2023-03-18T14:52:19.314Z,27
2023-03-18T14:53:26.162Z,26
2023-03-18T14:54:35.871Z,26
2023-03-18T14:55:42.764Z,26
2023-03-18T14:56:49.588Z,26
2023-03-18T14:57:56.492Z,26
2023-03-18T14:59:03.382Z,26
2023-03-18T15:00:10.203Z,26
2023-03-18T15:01:20.154Z,26
2023-03-18T15:02:26.935Z,26
2023-03-18T15:03:33.782Z,26
2023-03-18T15:04:43.341Z,25
2023-03-18T15:05:55.893Z,25
2023-03-18T15:07:05.502Z,25
2023-03-18T15:08:12.418Z,26
2023-03-18T15:09:19.268Z,26
2023-03-18T15:10:28.868Z,26
2023-03-18T15:11:35.894Z,25
2023-03-18T15:12:42.864Z,26
2023-03-18T15:13:49.665Z,26
2023-03-18T15:15:00.353Z,26
2023-03-18T15:16:07.214Z,26
2023-03-18T15:17:14.063Z,26
2023-03-18T15:18:20.945Z,26
2023-03-18T15:19:33.193Z,26
2023-03-18T15:20:40.008Z,26
2023-03-18T15:21:46.948Z,26
2023-03-18T15:22:53.782Z,26
2023-03-18T15:24:00.569Z,26
2023-03-18T15:25:07.530Z,26
2023-03-18T15:26:14.327Z,26
2023-03-18T15:27:23.655Z,26
2023-03-18T15:28:30.521Z,26
2023-03-18T15:29:37.322Z,26
2023-03-18T15:30:46.933Z,26
2023-03-18T15:31:59.747Z,26
2023-03-18T15:33:09.923Z,26
2023-03-18T15:34:19.851Z,26
2023-03-18T15:35:26.759Z,26
2023-03-18T15:36:34.328Z,26
2023-03-18T15:37:46.813Z,27
2023-03-18T15:39:03.770Z,27
2023-03-18T15:40:18.588Z,27
2023-03-18T15:41:28.053Z,26
2023-03-18T15:42:34.828Z,26
2023-03-18T15:43:41.636Z,26
2023-03-18T15:44:48.418Z,26
2023-03-18T15:45:58.267Z,26
2023-03-18T15:47:05.006Z,26
2023-03-18T15:48:17.335Z,26
2023-03-18T15:49:31.945Z,26
2023-03-18T15:50:38.785Z,26
2023-03-18T15:51:45.521Z,26
2023-03-18T15:52:52.435Z,27
2023-03-18T15:54:04.271Z,27
2023-03-18T15:55:21.172Z,27
2023-03-18T15:56:28.161Z,28
2023-03-18T15:57:35.056Z,28
2023-03-18T15:58:41.818Z,27
2023-03-18T15:59:51.402Z,28
2023-03-18T16:00:58.414Z,28
2023-03-18T16:02:05.259Z,28
2023-03-18T16:03:18.521Z,28
2023-03-18T16:04:28.417Z,28
2023-03-18T16:05:35.624Z,28
2023-03-18T16:06:42.096Z,28
2023-03-18T16:07:48.928Z,28
2023-03-18T16:08:58.667Z,28
2023-03-18T16:10:05.464Z,28
2023-03-18T16:11:12.550Z,28
2023-03-18T16:12:19.363Z,28
2023-03-18T16:13:26.188Z,27
2023-03-18T16:14:33.053Z,27
2023-03-18T16:15:42.912Z,27
2023-03-18T16:16:49.824Z,27
2023-03-18T16:17:56.636Z,27
2023-03-18T16:19:03.496Z,27
2023-03-18T16:20:18.028Z,27
2023-03-18T16:21:27.465Z,27
2023-03-18T16:22:34.282Z,27
2023-03-18T16:23:41.150Z,28
2023-03-18T16:24:48.004Z,28
2023-03-18T16:25:54.845Z,28
2023-03-18T16:27:01.641Z,28